To NAV CANADA Home Page Login to a new session Search on AWWS site Disclaimer Vers la page française équivalente Tips FAQ What's new on the site To the Forecasts and Observations / NOTAM section To "File a Flight Plan" website Publications and other links Update of the User's profile FIC Telephone Numbers My Weather Data Folder Route Weather Data Regional Weather Data Local Weather Data To the Forecasts and Observations / NOTAM section
Request Generated 10/19/2018 at 15:27:57 UTC . Weather information available at that time is displayed.

METAR/TAF

IVUJIVIK/QC    

METAR CYIK 191500Z /////KT 5SM -SN OVC026 M04/M05 RMK SC8 DENSITY ALT MISG=
METAR CYIK 191400Z /////KT 10SM -SN VCFG OVC030 M04/M06 RMK SC8 VIS N 3 FG DENSITY ALT MISG=
METAR CYIK 191300Z /////KT 6SM -SN BR FEW019 BKN030 OVC037 M05/M07 A2971 RMK SC1SC6SC2 SC TR SLP068=

TAF CYIK 191338Z 1914/1921 14012KT P6SM FEW020 BKN040 BKN080 TEMPO
1914/1917 4SM -SN BKN020 OVC040
BECMG 1915/1917 24012KT
FM191700 24012KT P6SM BKN030 TEMPO 1917/1921 2SM -SHSN BKN015
PROB30 1917/1921 1SM -SHSN VV008
RMK NXT FCST WILL BE ISSUED AT 201345Z=
Your time UTC time
Weather data provided by Environment Canada and NAV CANADA